Terminal Aerodrome Forecast
Issued by NWS

Home | Current Version | Previous Version | Text Only | Print | Product List | Glossary On
Versions: 1 2 3 4 5 6 7 8 9 10 11 12 13 14 15 16 17 18 19
085
FTUS44 KMAF 231723
TAFINK
TAF
KINK 231723Z 2318/2418 02018G27KT P6SM SCT040 BKN060
     FM232000 01013G20KT P6SM BKN100
     FM240300 11004KT P6SM FEW250
     FM241500 23010KT P6SM SKC=

USA.gov is the U.S. government's official web portal to all federal, state and local government web resources and services.